Time;durP1;ratioP1;P1;durP2;ratioP2;P2;SDS_P1;SDS_P2;PMS_P1;PMS_P2;Temp;Humidity;BMP_temperature;BMP_pressure;BME280_temperature;BME280_humidity;BME280_pressure;Samples;Min_cycle;Max_cycle;Signal;HPM_P1;HPM_P2
2023/10/17 00:01:49;;;;;;;7.40;2.35;;;;;;;9.78;57.54;100866.66;5052301;28;20048;-71
2023/10/17 00:06:47;;;;;;;6.90;1.88;;;;;;;9.83;57.47;100863.00;5035649;28;20049;-71
2023/10/17 00:09:22;;;;;;;6.30;2.35;;;;;;;9.67;57.62;100862.50;5052785;28;20055;-71
2023/10/17 00:14:25;;;;;;;7.72;2.13;;;;;;;9.75;57.56;100870.03;5052950;28;20053;-71
2023/10/17 00:16:55;;;;;;;6.05;2.00;;;;;;;9.79;57.77;100861.97;5036606;28;20068;-72
2023/10/17 00:19:26;;;;;;;5.43;2.33;;;;;;;9.82;58.17;100864.13;5055126;28;20441;-71
2023/10/17 00:21:54;;;;;;;7.40;2.30;;;;;;;9.52;59.59;100856.47;5036230;28;20044;-69
2023/10/17 00:24:23;;;;;;;6.07;2.28;;;;;;;9.58;60.13;100857.97;5013916;28;20099;-71
2023/10/17 00:26:50;;;;;;;10.32;3.38;;;;;;;9.67;59.99;100859.75;5033618;28;20045;-70
2023/10/17 00:29:18;;;;;;;7.93;2.63;;;;;;;9.44;61.13;100848.88;5048604;28;20045;-71
2023/10/17 00:31:46;;;;;;;9.30;3.03;;;;;;;9.38;61.55;100850.91;5053702;28;20049;-71
2023/10/17 00:34:14;;;;;;;5.07;2.50;;;;;;;9.17;62.50;100849.63;5032295;28;20051;-70
2023/10/17 00:37:00;;;;;;;7.28;2.65;;;;;;;9.19;62.73;100841.91;5033390;28;20576;-70
2023/10/17 00:39:31;;;;;;;7.20;2.55;;;;;;;9.16;62.72;100838.94;5052928;28;20056;-70
2023/10/17 00:44:44;;;;;;;6.25;2.50;;;;;;;9.50;61.91;100822.94;5051113;28;20076;-69
2023/10/17 00:47:11;;;;;;;8.60;2.63;;;;;;;9.60;61.23;100820.00;5012465;28;20053;-70
2023/10/17 00:49:41;;;;;;;7.13;2.28;;;;;;;9.71;61.24;100815.94;5034785;28;20048;-70
2023/10/17 00:52:16;;;;;;;6.15;2.78;;;;;;;9.76;60.48;100813.88;5052443;28;20432;-71
2023/10/17 00:54:45;;;;;;;5.43;2.20;;;;;;;9.65;60.44;100819.91;5010926;28;20053;-71
2023/10/17 00:57:14;;;;;;;5.95;2.25;;;;;;;9.44;61.02;100804.91;5048412;28;20052;-71
2023/10/17 01:00:35;;;;;;;6.55;2.78;;;;;;;9.47;60.97;100810.63;5031350;28;20064;-72
2023/10/17 01:02:44;;;;;;;8.82;2.50;;;;;;;9.52;60.94;100810.50;5017787;28;20068;-71
2023/10/17 01:05:12;;;;;;;8.68;2.33;;;;;;;9.28;61.54;100822.78;5015095;28;20497;-73
2023/10/17 01:07:40;;;;;;;5.57;2.63;;;;;;;9.36;61.02;100811.94;5051250;28;20519;-70
2023/10/17 01:10:10;;;;;;;6.88;3.08;;;;;;;9.39;60.78;100807.75;5035121;28;20044;-71
2023/10/17 01:12:52;;;;;;;5.43;2.38;;;;;;;9.52;60.50;100804.22;5024987;28;20049;-71
2023/10/17 01:15:22;;;;;;;4.13;2.03;;;;;;;9.17;61.16;100802.13;5050886;28;20052;-71
2023/10/17 01:17:54;;;;;;;6.55;2.53;;;;;;;9.30;61.28;100791.16;5034972;28;20048;-72
2023/10/17 01:20:22;;;;;;;8.27;2.58;;;;;;;9.42;60.46;100790.63;5030152;28;20596;-72
2023/10/17 01:22:55;;;;;;;8.73;2.60;;;;;;;9.43;60.58;100795.03;5048870;28;20064;-71
2023/10/17 01:25:26;;;;;;;6.00;2.30;;;;;;;9.26;60.78;100784.63;5044753;28;20052;-71
2023/10/17 01:27:55;;;;;;;10.70;2.60;;;;;;;9.13;61.43;100788.16;5033927;28;20460;-70
2023/10/17 01:30:23;;;;;;;7.20;2.63;;;;;;;9.12;61.42;100785.72;5051976;28;20037;-71
2023/10/17 01:32:51;;;;;;;7.68;2.63;;;;;;;9.22;61.27;100786.38;5051375;28;20044;-71
2023/10/17 01:35:19;;;;;;;7.50;2.78;;;;;;;9.33;61.28;100784.25;5051931;28;20079;-71
2023/10/17 01:37:47;;;;;;;5.63;2.40;;;;;;;9.29;60.77;100791.47;5051310;28;20068;-70
2023/10/17 01:40:27;;;;;;;7.50;2.55;;;;;;;9.30;61.17;100790.31;5051323;28;20119;-71
2023/10/17 01:42:59;;;;;;;8.45;2.47;;;;;;;9.35;60.69;100793.78;5036734;28;20053;-72
2023/10/17 01:45:29;;;;;;;7.07;2.35;;;;;;;9.24;60.99;100789.59;5026326;28;20045;-71
2023/10/17 01:47:58;;;;;;;4.78;2.17;;;;;;;9.26;61.23;100795.63;5044502;28;20068;-72
2023/10/17 01:50:26;;;;;;;4.78;2.40;;;;;;;9.26;61.29;100792.06;5051690;28;20057;-71
2023/10/17 01:52:53;;;;;;;6.05;2.60;;;;;;;9.19;61.27;100808.13;5051668;28;20064;-73
2023/10/17 01:55:26;;;;;;;7.00;2.45;;;;;;;9.21;61.65;100798.44;5033820;28;20056;-71
2023/10/17 01:57:57;;;;;;;5.10;2.17;;;;;;;9.18;61.58;100803.75;5029915;28;20053;-71
2023/10/17 02:00:37;;;;;;;5.78;2.30;;;;;;;9.26;61.30;100806.59;5034305;28;20481;-71
2023/10/17 02:03:05;;;;;;;6.75;2.70;;;;;;;9.19;61.55;100806.19;5052174;28;20063;-72
2023/10/17 02:05:36;;;;;;;6.88;2.78;;;;;;;8.78;62.71;100814.31;5047269;28;20045;-71
2023/10/17 02:08:08;;;;;;;6.10;2.47;;;;;;;8.80;62.93;100803.81;5031958;28;20592;-73
2023/10/17 02:10:36;;;;;;;6.07;2.70;;;;;;;8.84;62.81;100807.59;5049940;28;20378;-71
2023/10/17 02:13:04;;;;;;;4.90;2.33;;;;;;;8.77;63.31;100804.44;5026669;28;20037;-71
2023/10/17 02:15:32;;;;;;;8.25;2.67;;;;;;;8.74;63.09;100794.03;5051463;28;20404;-71
2023/10/17 02:18:06;;;;;;;6.30;2.53;;;;;;;8.90;62.77;100798.19;5033473;28;20064;-72
2023/10/17 02:20:34;;;;;;;4.47;2.30;;;;;;;9.03;62.54;100791.91;5032379;28;20056;-71
2023/10/17 02:23:08;;;;;;;5.07;2.28;;;;;;;9.24;61.93;100794.31;5045420;28;20052;-71
2023/10/17 02:25:37;;;;;;;6.78;2.42;;;;;;;9.17;61.93;100789.16;5050672;28;20481;-71
2023/10/17 02:28:05;;;;;;;5.03;2.50;;;;;;;9.07;62.37;100787.44;5053986;28;20501;-70
2023/10/17 02:30:33;;;;;;;5.00;2.47;;;;;;;9.01;62.67;100790.59;5030821;28;20052;-70
2023/10/17 02:33:02;;;;;;;8.35;2.63;;;;;;;8.90;63.33;100794.63;5034982;28;20582;-70
2023/10/17 02:35:42;;;;;;;5.47;2.63;;;;;;;8.77;64.48;100801.69;5050325;28;20048;-70
2023/10/17 02:38:09;;;;;;;11.32;2.83;;;;;;;8.71;64.84;100796.56;5050366;28;20045;-71
2023/10/17 02:40:40;;;;;;;8.70;3.05;;;;;;;8.54;66.06;100802.59;5039235;28;20049;-70
2023/10/17 02:43:12;;;;;;;7.25;2.83;;;;;;;8.35;66.56;100792.75;5048493;28;20053;-73
2023/10/17 02:45:43;;;;;;;7.68;3.20;;;;;;;8.30;67.04;100787.34;5045035;28;20519;-71
2023/10/17 02:48:23;;;;;;;7.72;3.20;;;;;;;8.31;67.52;100788.97;5048640;28;20053;-72
2023/10/17 02:51:02;;;;;;;10.15;3.17;;;;;;;8.54;66.59;100794.34;5030507;28;20057;-71
2023/10/17 02:53:34;;;;;;;6.90;3.10;;;;;;;8.26;67.40;100794.53;5016929;28;20065;-71
2023/10/17 02:56:18;;;;;;;10.10;3.45;;;;;;;8.20;67.88;100791.00;5053286;28;20299;-71
2023/10/17 02:58:48;;;;;;;7.65;3.38;;;;;;;8.21;68.10;100795.38;5032588;28;20048;-70
2023/10/17 03:01:15;;;;;;;6.97;2.95;;;;;;;8.31;67.64;100780.72;5032348;28;20053;-72
2023/10/17 03:03:43;;;;;;;6.57;3.22;;;;;;;8.38;67.66;100789.41;5038404;28;20064;-71
2023/10/17 03:06:15;;;;;;;7.35;3.25;;;;;;;8.18;68.48;100784.97;5016317;28;20901;-70
2023/10/17 03:08:49;;;;;;;8.85;3.45;;;;;;;8.15;68.47;100785.59;5052511;28;20658;-71
2023/10/17 03:14:22;;;;;;;9.93;3.65;;;;;;;8.24;68.27;100777.53;5012954;28;20064;-72
2023/10/17 03:16:53;;;;;;;7.72;3.20;;;;;;;8.25;68.89;100781.91;5031649;28;20042;-71
2023/10/17 03:19:27;;;;;;;7.07;3.20;;;;;;;8.14;68.89;100769.44;5045827;28;20053;-70
2023/10/17 03:25:20;;;;;;;17.07;3.33;;;;;;;8.15;68.83;100769.13;5001578;28;20093;-70
2023/10/17 03:27:50;;;;;;;6.72;3.13;;;;;;;8.08;69.70;100770.59;5007803;28;20057;-70
2023/10/17 03:30:19;;;;;;;9.32;3.10;;;;;;;8.08;69.24;100776.91;4991871;28;20081;-71
2023/10/17 03:35:35;;;;;;;7.85;3.28;;;;;;;8.46;67.70;100784.06;5032492;28;20064;-70
2023/10/17 03:38:04;;;;;;;10.35;3.38;;;;;;;8.49;67.78;100786.19;5049857;28;20056;-71
2023/10/17 03:40:40;;;;;;;8.10;3.25;;;;;;;8.24;68.70;100783.84;5025817;28;20064;-70
2023/10/17 03:43:15;;;;;;;8.63;3.65;;;;;;;8.29;68.88;100786.50;5055886;28;20060;-70
2023/10/17 03:45:43;;;;;;;9.73;3.30;;;;;;;8.38;68.14;100784.75;5034340;28;20064;-70
2023/10/17 03:48:14;;;;;;;7.07;3.40;;;;;;;8.48;67.87;100789.25;5044726;28;20050;-69
2023/10/17 03:50:57;;;;;;;7.82;3.20;;;;;;;8.52;67.89;100779.31;5044405;28;20045;-72
2023/10/17 03:53:28;;;;;;;9.20;3.65;;;;;;;8.71;67.10;100772.69;5054201;28;20525;-71
2023/10/17 03:56:00;;;;;;;9.60;3.20;;;;;;;8.75;66.44;100773.69;5049563;28;20060;-71
2023/10/17 04:01:00;;;;;;;8.25;3.63;;;;;;;8.55;66.79;100771.28;5044997;28;20064;-71
2023/10/17 04:03:31;;;;;;;7.55;3.40;;;;;;;8.62;66.81;100760.75;5054942;28;20056;-72
2023/10/17 04:08:48;;;;;;;12.93;3.30;;;;;;;8.40;67.53;100770.72;5056509;28;20051;-70
2023/10/17 04:11:25;;;;;;;5.20;2.83;;;;;;;8.40;67.90;100779.78;5039603;28;20056;-70
2023/10/17 04:13:54;;;;;;;8.68;3.47;;;;;;;8.34;67.81;100769.97;5050483;28;20056;-71
2023/10/17 04:16:38;;;;;;;7.60;3.70;;;;;;;8.40;67.78;100771.53;5055610;28;20060;-71
2023/10/17 04:19:07;;;;;;;8.43;3.47;;;;;;;8.53;67.37;100776.25;5053880;28;20295;-70
2023/10/17 04:21:37;;;;;;;10.40;3.20;;;;;;;8.48;67.32;100778.25;5037839;28;20485;-69
2023/10/17 04:24:05;;;;;;;7.10;3.55;;;;;;;8.17;68.83;100775.13;5024976;28;20466;-71
2023/10/17 04:26:35;;;;;;;5.97;3.28;;;;;;;8.13;68.99;100773.25;5038111;28;20500;-69
2023/10/17 04:29:13;;;;;;;8.75;3.50;;;;;;;8.35;68.21;100781.78;5021313;28;20078;-70
2023/10/17 04:31:43;;;;;;;7.18;3.80;;;;;;;8.17;68.68;100777.06;5034658;28;20504;-70
2023/10/17 04:34:26;;;;;;;7.57;3.63;;;;;;;8.15;68.61;100774.63;5031676;28;20053;-71
2023/10/17 04:36:56;;;;;;;8.20;3.70;;;;;;;8.27;68.43;100772.28;5045318;28;20060;-69
2023/10/17 04:44:39;;;;;;;9.15;3.50;;;;;;;8.48;68.10;100765.38;5037342;28;20068;-70
2023/10/17 04:47:25;;;;;;;9.57;3.80;;;;;;;8.34;68.37;100767.22;5032952;28;20060;-70
2023/10/17 04:49:53;;;;;;;9.85;4.20;;;;;;;8.33;68.74;100762.03;5038508;28;20141;-70
2023/10/17 04:52:28;;;;;;;9.15;3.58;;;;;;;8.34;68.78;100752.69;5045587;28;20080;-71
2023/10/17 04:55:11;;;;;;;9.38;3.58;;;;;;;8.41;68.81;100753.13;5053441;28;20056;-69
2023/10/17 05:03:27;;;;;;;14.65;4.55;;;;;;;8.53;68.82;100743.31;5030032;28;20131;-71
2023/10/17 05:09:00;;;;;;;10.57;3.85;;;;;;;8.08;70.32;100719.31;5042757;28;20055;-72
2023/10/17 06:16:51;;;;;;;12.77;3.70;;;;;;;7.84;71.08;100730.34;5032444;28;20423;-71
2023/10/17 06:18:19;;;;;;;12.88;4.53;;;;;;;8.17;70.64;100771.56;5053176;28;20037;-71
2023/10/17 06:21:17;;;;;;;12.75;3.97;;;;;;;8.03;70.85;100776.97;5047759;28;20060;-72
2023/10/17 06:26:47;;;;;;;12.32;4.57;;;;;;;7.84;71.85;100773.41;5048119;28;20484;-70
2023/10/17 06:34:21;;;;;;;13.93;4.75;;;;;;;7.92;71.60;100770.81;5028258;28;20034;-71
2023/10/17 06:36:59;;;;;;;9.82;4.32;;;;;;;7.92;71.53;100775.47;5046069;28;20053;-71
2023/10/17 06:39:36;;;;;;;12.02;4.32;;;;;;;7.95;72.05;100772.13;5049892;28;20057;-71
2023/10/17 06:42:49;;;;;;;10.43;4.50;;;;;;;7.86;71.78;100780.19;5053077;28;20052;-72
2023/10/17 06:45:08;;;;;;;9.90;4.32;;;;;;;7.85;71.41;100775.84;5031649;28;20052;-70
2023/10/17 06:47:47;;;;;;;12.43;4.70;;;;;;;7.89;71.60;100771.41;5052845;28;20051;-70
2023/10/17 06:55:28;;;;;;;10.50;4.60;;;;;;;8.02;70.77;100774.53;5052874;28;20055;-70
2023/10/17 06:58:08;;;;;;;13.50;4.95;;;;;;;7.94;71.29;100778.75;5022119;28;20083;-70
2023/10/17 07:00:52;;;;;;;13.80;5.13;;;;;;;7.91;71.14;100776.59;5047821;28;20048;-69
2023/10/17 07:03:24;;;;;;;14.50;4.82;;;;;;;7.99;71.50;100782.22;5051009;28;20045;-68
2023/10/17 07:06:03;;;;;;;11.90;4.72;;;;;;;8.00;71.00;100781.09;5049136;28;20056;-67
2023/10/17 07:08:36;;;;;;;21.42;5.40;;;;;;;8.12;71.21;100777.13;5045482;28;20045;-68
2023/10/17 07:16:34;;;;;;;11.80;4.90;;;;;;;8.10;71.07;100769.19;5051587;28;20045;-70
2023/10/17 07:19:58;;;;;;;12.00;4.75;;;;;;;8.12;70.43;100775.22;5031740;28;20049;-70
2023/10/17 07:24:33;;;;;;;15.63;5.53;;;;;;;8.13;70.86;100773.25;5054119;28;20056;-69
2023/10/17 07:27:02;;;;;;;12.70;4.82;;;;;;;8.18;71.01;100764.97;5035327;28;20053;-70
2023/10/17 07:29:33;;;;;;;14.73;6.82;;;;;;;8.40;70.43;100771.53;5037435;28;20045;-70
2023/10/17 07:32:01;;;;;;;14.40;5.78;;;;;;;8.37;70.16;100782.28;5031342;28;20460;-70
2023/10/17 07:34:35;;;;;;;17.35;5.63;;;;;;;8.46;69.85;100775.00;5052869;28;20060;-68
2023/10/17 07:42:31;;;;;;;16.15;7.28;;;;;;;8.49;69.36;100771.69;5054131;28;20048;-70
2023/10/17 07:45:02;;;;;;;15.68;4.70;;;;;;;8.40;69.60;100776.19;5054805;28;20053;-70
2023/10/17 07:47:35;;;;;;;14.32;5.00;;;;;;;8.36;69.62;100762.25;5058182;28;20063;-70
2023/10/17 07:50:03;;;;;;;19.85;5.15;;;;;;;8.47;69.36;100777.44;5041169;28;20064;-70
2023/10/17 07:52:31;;;;;;;11.68;5.40;;;;;;;8.68;69.10;100776.00;5043077;28;20045;-69
2023/10/17 07:54:59;;;;;;;14.18;5.53;;;;;;;8.77;68.90;100767.94;5047280;28;20052;-69
2023/10/17 07:57:36;;;;;;;17.27;5.38;;;;;;;8.76;68.90;100769.84;5046008;28;20057;-70
2023/10/17 08:00:24;;;;;;;12.70;5.25;;;;;;;8.99;68.07;100763.41;5031017;28;20565;-70
2023/10/17 08:03:00;;;;;;;12.90;4.80;;;;;;;8.91;67.57;100768.75;5053941;28;20609;-69
2023/10/17 08:05:36;;;;;;;14.05;5.40;;;;;;;8.80;67.78;100773.59;5036187;28;20051;-71
2023/10/17 08:08:08;;;;;;;10.25;5.10;;;;;;;8.57;68.73;100774.56;5020140;28;20399;-69
2023/10/17 08:10:36;;;;;;;15.48;5.63;;;;;;;8.73;68.77;100775.13;5050656;28;20109;-71
2023/10/17 08:13:03;;;;;;;11.02;5.22;;;;;;;8.99;68.26;100768.91;5020633;28;20052;-68
2023/10/17 08:15:43;;;;;;;14.35;5.30;;;;;;;8.92;67.86;100767.66;5051575;28;20055;-68
2023/10/17 08:18:14;;;;;;;;;;;;;;;8.67;68.71;100777.13;5045993;28;20397;-69
2023/10/17 08:23:26;;;;;;;16.65;5.28;;;;;;;8.89;68.40;100779.25;5054885;28;20404;-69
2023/10/17 08:25:59;;;;;;;18.02;5.50;;;;;;;8.97;67.94;100773.06;5032647;28;20432;-70
2023/10/17 08:36:47;;;;;;;24.58;7.20;;;;;;;9.26;67.76;100767.34;5049288;28;20631;-69
2023/10/17 08:42:05;;;;;;;16.23;5.88;;;;;;;9.35;67.06;100749.00;5031753;28;20037;-70
2023/10/17 08:44:38;;;;;;;14.82;6.53;;;;;;;9.56;66.66;100758.47;5051319;28;20057;-69
2023/10/17 08:47:07;;;;;;;12.57;5.95;;;;;;;9.54;66.98;100755.22;5047079;28;20488;-70
2023/10/17 08:49:35;;;;;;;24.17;6.60;;;;;;;9.57;66.55;100749.13;5051404;28;20441;-68
2023/10/17 08:52:06;;;;;;;16.33;6.82;;;;;;;9.71;66.35;100749.94;5049194;28;20045;-70
2023/10/17 08:54:47;;;;;;;15.73;6.03;;;;;;;9.91;65.51;100755.00;5048559;28;20401;-70
2023/10/17 08:57:15;;;;;;;12.48;6.60;;;;;;;9.98;65.34;100755.38;5038156;28;20257;-69
2023/10/17 09:02:29;;;;;;;19.08;5.70;;;;;;;9.96;65.07;100755.69;5033814;28;20054;-69
2023/10/17 09:05:26;;;;;;;15.80;6.20;;;;;;;10.09;64.65;100752.13;5051295;28;20049;-70
2023/10/17 09:07:57;;;;;;;15.20;5.63;;;;;;;10.00;64.86;100750.41;5047093;28;20061;-69
2023/10/17 09:10:38;;;;;;;14.30;5.50;;;;;;;10.00;65.05;100745.72;5051647;28;20048;-69
2023/10/17 09:15:57;;;;;;;23.63;7.38;;;;;;;9.87;65.33;100743.78;5030251;28;20139;-62
2023/10/17 09:18:28;;;;;;;23.77;7.72;;;;;;;9.90;65.71;100751.41;5052407;28;20060;-62
2023/10/17 09:20:57;;;;;;;19.20;6.70;;;;;;;10.16;65.05;100737.97;5048853;28;20057;-63
2023/10/17 09:23:27;;;;;;;13.93;6.60;;;;;;;10.31;64.86;100734.03;5052209;28;20045;-63
2023/10/17 09:26:01;;;;;;;22.90;6.13;;;;;;;10.31;64.35;100737.59;5049394;28;20053;-65
2023/10/17 09:28:28;;;;;;;15.15;6.35;;;;;;;10.52;63.81;100737.91;5043205;28;20045;-65
2023/10/17 09:31:08;;;;;;;13.98;5.95;;;;;;;10.49;64.00;100736.63;5049820;28;20040;-63
2023/10/17 09:33:43;;;;;;;;;;;;;;;10.63;63.41;100739.31;5048930;28;20045;-63
2023/10/17 09:36:13;;;;;;;12.27;5.88;;;;;;;10.60;63.62;100737.97;5050233;28;19920;-62
2023/10/17 09:38:45;;;;;;;15.43;5.93;;;;;;;10.67;63.37;100732.84;5033563;28;20053;-63
2023/10/17 09:41:17;;;;;;;27.00;7.40;;;;;;;10.54;63.73;100730.16;5037092;28;20052;-64
2023/10/17 09:43:46;;;;;;;18.38;7.47;;;;;;;10.45;63.99;100732.03;5043339;28;20061;-66
2023/10/17 09:46:14;;;;;;;33.15;8.30;;;;;;;10.43;64.04;100732.34;5052195;28;20049;-63
2023/10/17 09:48:48;;;;;;;32.00;7.03;;;;;;;10.66;63.47;100730.41;5029597;28;20049;-64
2023/10/17 09:51:21;;;;;;;16.65;7.40;;;;;;;10.83;63.61;100722.25;5020007;28;20044;-63
2023/10/17 09:53:58;;;;;;;16.58;6.60;;;;;;;10.92;63.08;100726.69;5034589;28;20048;-63
2023/10/17 09:56:32;;;;;;;21.38;7.05;;;;;;;11.22;62.08;100722.31;5030175;28;20063;-63
2023/10/17 09:59:03;;;;;;;13.80;6.43;;;;;;;11.15;62.25;100717.28;5032702;28;20053;-63
2023/10/17 10:01:32;;;;;;;13.75;6.05;;;;;;;11.33;62.15;100709.88;5018792;28;20504;-62
2023/10/17 10:04:01;;;;;;;21.67;11.45;;;;;;;11.39;61.46;100719.63;5028540;28;20869;-63
2023/10/17 10:06:33;;;;;;;17.52;8.30;;;;;;;11.32;61.38;100713.75;5052759;28;20051;-64
2023/10/17 10:09:01;;;;;;;44.53;27.42;;;;;;;11.23;61.86;100718.41;5046192;28;20046;-63
2023/10/17 10:11:58;;;;;;;40.45;25.73;;;;;;;11.25;62.34;100719.75;5058500;28;20063;-62
2023/10/17 10:14:26;;;;;;;29.70;15.88;;;;;;;11.43;61.85;100708.78;5046543;28;20068;-64
2023/10/17 10:17:03;;;;;;;16.45;9.07;;;;;;;11.64;61.62;100712.56;5029618;28;20053;-64
2023/10/17 10:19:50;;;;;;;13.70;7.03;;;;;;;11.59;61.71;100704.44;5039144;28;20056;-62
2023/10/17 10:22:21;;;;;;;15.65;8.20;;;;;;;11.67;61.27;100704.50;5032980;28;20099;-64
2023/10/17 10:25:05;;;;;;;19.30;12.13;;;;;;;11.46;61.69;100703.44;5050639;28;20063;-65
2023/10/17 10:27:33;;;;;;;31.17;20.17;;;;;;;11.29;62.53;100706.97;5042345;28;20056;-63
2023/10/17 10:30:43;;;;;;;18.58;10.60;;;;;;;11.48;62.15;100703.94;5021295;28;20053;-66
2023/10/17 10:33:12;;;;;;;30.33;19.30;;;;;;;11.50;62.05;100687.88;5031433;28;20059;-62
2023/10/17 10:35:45;;;;;;;23.45;13.10;;;;;;;11.73;61.59;100681.16;5048324;28;20523;-65
2023/10/17 10:38:13;;;;;;;25.05;12.52;;;;;;;11.96;60.92;100684.59;5018161;28;20057;-63
2023/10/17 10:40:40;;;;;;;22.45;10.95;;;;;;;12.05;60.31;100680.69;5032997;28;20045;-63
2023/10/17 10:43:11;;;;;;;16.23;10.30;;;;;;;12.20;60.65;100673.88;5053118;28;20049;-62
2023/10/17 10:45:55;;;;;;;25.00;14.35;;;;;;;12.06;60.05;100667.72;5030354;28;20059;-62
2023/10/17 10:48:22;;;;;;;22.35;11.43;;;;;;;11.97;60.67;100683.44;5028639;28;20064;-60
2023/10/17 10:50:57;;;;;;;21.00;8.55;;;;;;;11.90;60.79;100688.63;5013521;28;20058;-62
2023/10/17 10:53:33;;;;;;;15.50;8.50;;;;;;;12.03;60.76;100679.41;5045360;28;20049;-61
2023/10/17 10:56:04;;;;;;;20.50;9.60;;;;;;;12.16;60.22;100670.16;5035997;28;20053;-62
2023/10/17 10:58:33;;;;;;;20.02;7.80;;;;;;;12.10;60.53;100672.25;5052568;28;20053;-62
2023/10/17 11:01:02;;;;;;;20.87;7.87;;;;;;;12.27;60.46;100668.69;5051066;28;20052;-61
2023/10/17 11:03:33;;;;;;;17.08;7.63;;;;;;;12.17;60.24;100674.50;5035591;28;20060;-62
2023/10/17 11:06:04;;;;;;;14.13;7.95;;;;;;;12.20;60.56;100676.66;5051983;28;20056;-61
2023/10/17 11:08:43;;;;;;;18.20;7.47;;;;;;;12.58;59.55;100668.47;5038514;28;20369;-61
2023/10/17 11:11:15;;;;;;;17.90;7.10;;;;;;;12.59;59.46;100673.66;5034283;28;20053;-61
2023/10/17 11:13:47;;;;;;;17.20;7.72;;;;;;;12.34;60.12;100669.81;5056802;28;20063;-61
2023/10/17 11:16:20;;;;;;;13.95;6.63;;;;;;;12.44;60.01;100669.50;5025547;28;20056;-62
2023/10/17 11:18:48;;;;;;;18.65;7.55;;;;;;;12.45;59.78;100664.75;5046500;28;20061;-62
2023/10/17 11:21:20;;;;;;;12.65;6.80;;;;;;;12.77;59.56;100653.16;5030980;28;20040;-61
2023/10/17 11:23:59;;;;;;;16.05;7.68;;;;;;;13.02;58.73;100657.81;5035306;28;20069;-61
2023/10/17 11:26:29;;;;;;;13.95;7.50;;;;;;;13.00;58.25;100657.31;5049599;28;20053;-61
2023/10/17 11:28:58;;;;;;;14.88;9.10;;;;;;;12.89;59.18;100655.22;5051624;28;20058;-63
2023/10/17 11:31:26;;;;;;;26.48;12.43;;;;;;;12.94;58.53;100633.75;5034952;28;20048;-63
2023/10/17 11:33:55;;;;;;;14.75;7.35;;;;;;;13.05;58.83;100637.00;5053981;28;20045;-63
2023/10/17 11:36:23;;;;;;;14.55;7.22;;;;;;;13.11;58.78;100625.41;5038266;28;20040;-65
2023/10/17 11:39:04;;;;;;;13.65;6.85;;;;;;;13.16;58.58;100627.19;5053710;28;20053;-64
2023/10/17 11:41:39;;;;;;;18.35;7.20;;;;;;;13.06;58.56;100620.06;5036519;28;20528;-61
2023/10/17 11:44:07;;;;;;;14.23;7.30;;;;;;;13.17;58.39;100614.97;5049588;28;20045;-63
2023/10/17 11:46:37;;;;;;;15.45;7.13;;;;;;;13.16;58.55;100614.16;5050623;28;20045;-62
2023/10/17 11:49:26;;;;;;;17.13;6.97;;;;;;;13.50;57.94;100607.63;5052356;28;20049;-62
2023/10/17 11:51:59;;;;;;;23.77;7.65;;;;;;;13.49;58.07;100609.56;5048506;28;20045;-62
2023/10/17 11:54:27;;;;;;;20.15;7.15;;;;;;;13.61;57.98;100599.75;5056918;28;20048;-63
2023/10/17 11:57:15;;;;;;;22.58;7.78;;;;;;;13.76;57.42;100599.94;5047338;28;20045;-62
2023/10/17 11:59:57;;;;;;;18.48;7.65;;;;;;;13.73;57.67;100588.75;5050922;28;20045;-62
2023/10/17 12:02:25;;;;;;;16.55;7.80;;;;;;;13.70;57.73;100589.41;5054234;28;20041;-62
2023/10/17 12:04:55;;;;;;;33.90;8.00;;;;;;;13.67;58.28;100590.88;5049009;28;20084;-63
2023/10/17 12:07:22;;;;;;;44.25;9.02;;;;;;;13.83;57.63;100589.16;5053899;28;20068;-60
2023/10/17 12:09:53;;;;;;;26.70;8.02;;;;;;;14.14;56.99;100580.41;5053771;28;20051;-62
2023/10/17 12:12:22;;;;;;;19.60;6.80;;;;;;;14.37;56.69;100571.41;5052092;28;20044;-62
2023/10/17 12:14:51;;;;;;;17.27;6.47;;;;;;;14.30;56.65;100571.16;5055427;28;20045;-63
2023/10/17 12:17:19;;;;;;;20.75;6.90;;;;;;;14.28;56.91;100561.53;5055554;28;20720;-62
2023/10/17 12:19:51;;;;;;;15.93;6.75;;;;;;;14.20;57.39;100567.97;5037449;28;20607;-62
2023/10/17 12:22:21;;;;;;;14.02;6.45;;;;;;;14.08;57.52;100562.38;5053515;28;20059;-62
2023/10/17 12:24:49;;;;;;;23.13;6.93;;;;;;;14.21;57.46;100555.75;5057440;28;21225;-62
2023/10/17 12:27:20;;;;;;;37.70;8.05;;;;;;;14.37;57.21;100559.50;5053606;28;20052;-60
2023/10/17 12:29:48;;;;;;;28.25;6.88;;;;;;;14.44;57.32;100560.56;5051135;28;20563;-62
2023/10/17 12:32:17;;;;;;;30.88;6.35;;;;;;;14.78;56.76;100542.72;5046359;28;20057;-65
2023/10/17 12:34:46;;;;;;;17.42;6.30;;;;;;;14.62;56.82;100534.28;5047969;28;20048;-61
2023/10/17 12:37:13;;;;;;;16.13;6.70;;;;;;;14.74;56.74;100536.25;5047635;28;20060;-61
2023/10/17 12:39:42;;;;;;;27.40;6.95;;;;;;;14.83;56.70;100545.25;5044533;28;20045;-63
2023/10/17 12:42:11;;;;;;;16.45;5.80;;;;;;;14.92;56.96;100537.66;5052462;28;20037;-62
2023/10/17 12:44:42;;;;;;;15.40;4.65;;;;;;;15.07;56.14;100530.56;5049625;28;20045;-62
2023/10/17 12:47:10;;;;;;;13.30;5.32;;;;;;;15.06;56.65;100531.75;5050897;28;20056;-64
2023/10/17 12:49:46;;;;;;;13.68;5.05;;;;;;;15.32;56.20;100523.84;5050165;28;20048;-65
2023/10/17 12:52:21;;;;;;;18.20;4.88;;;;;;;15.24;56.64;100522.81;5045575;28;20041;-61
2023/10/17 12:54:48;;;;;;;15.82;4.45;;;;;;;15.33;56.65;100512.41;5036217;28;20045;-61
2023/10/17 12:57:19;;;;;;;24.13;5.13;;;;;;;15.43;56.49;100508.38;5051146;28;20049;-66
2023/10/17 12:59:46;;;;;;;28.33;5.57;;;;;;;15.37;56.57;100509.72;5052563;28;20049;-63
2023/10/17 13:02:15;;;;;;;18.02;4.75;;;;;;;15.57;56.15;100514.31;5053072;28;20048;-63
2023/10/17 13:04:42;;;;;;;12.02;5.03;;;;;;;15.37;56.33;100512.50;5031669;28;20050;-62
2023/10/17 13:07:17;;;;;;;12.43;5.90;;;;;;;15.71;55.70;100509.19;5039493;28;20414;-62
2023/10/17 13:09:48;;;;;;;23.77;5.90;;;;;;;15.68;55.41;100507.13;5048133;28;20056;-63
2023/10/17 13:12:15;;;;;;;21.77;5.70;;;;;;;15.53;56.17;100503.09;5051181;28;20043;-64
2023/10/17 13:14:45;;;;;;;17.67;4.13;;;;;;;15.59;56.36;100500.91;5034699;28;20037;-66
2023/10/17 13:17:13;;;;;;;13.25;4.13;;;;;;;15.70;56.18;100497.28;5034061;28;20046;-63
2023/10/17 13:19:43;;;;;;;13.52;4.63;;;;;;;15.52;56.71;100493.19;5049163;28;20041;-62
2023/10/17 13:22:16;;;;;;;19.85;4.05;;;;;;;15.70;56.39;100485.38;5046472;28;20052;-63
2023/10/17 13:24:47;;;;;;;29.73;7.60;;;;;;;15.84;56.15;100491.31;5027195;28;20068;-60
2023/10/17 13:27:15;;;;;;;27.80;5.88;;;;;;;16.06;55.29;100481.59;5041980;28;20048;-62
2023/10/17 13:29:48;;;;;;;22.90;5.43;;;;;;;16.10;55.42;100485.28;5046872;28;20057;-62
2023/10/17 13:32:15;;;;;;;20.40;4.95;;;;;;;16.04;55.62;100481.16;5029172;28;20045;-64
2023/10/17 13:34:44;;;;;;;13.27;4.53;;;;;;;15.71;56.35;100471.13;5049688;28;20056;-64
2023/10/17 13:37:12;;;;;;;10.77;4.45;;;;;;;15.70;56.67;100472.31;5001517;28;20053;-62
2023/10/17 13:39:40;;;;;;;23.80;4.55;;;;;;;15.64;57.10;100482.03;5034414;28;20670;-62
2023/10/17 13:42:09;;;;;;;20.27;4.60;;;;;;;15.62;57.21;100470.47;5052879;28;20052;-60
2023/10/17 13:44:36;;;;;;;11.98;4.07;;;;;;;15.82;56.92;100460.31;5053763;28;20550;-60
2023/10/17 13:47:05;;;;;;;20.73;4.47;;;;;;;15.77;56.78;100469.72;5052866;28;20666;-64
2023/10/17 13:49:36;;;;;;;17.85;4.55;;;;;;;15.79;56.67;100464.59;5047765;28;20069;-61
2023/10/17 13:52:03;;;;;;;13.43;4.63;;;;;;;15.97;56.92;100478.19;5050316;28;20043;-63
2023/10/17 13:54:37;;;;;;;27.77;7.50;;;;;;;15.78;57.22;100462.19;5034569;28;20657;-62
2023/10/17 13:57:06;;;;;;;20.48;5.00;;;;;;;15.98;56.83;100454.78;5050929;28;20055;-63
2023/10/17 13:59:46;;;;;;;19.15;4.15;;;;;;;16.01;56.78;100462.41;5025515;28;20469;-62
2023/10/17 14:02:17;;;;;;;19.63;4.43;;;;;;;16.04;56.91;100468.06;5045584;28;20045;-62
2023/10/17 14:04:45;;;;;;;27.02;5.00;;;;;;;15.97;57.08;100465.09;5035251;28;20060;-63
2023/10/17 14:07:14;;;;;;;23.48;4.50;;;;;;;15.77;57.98;100458.63;5047480;28;20060;-62
2023/10/17 14:09:41;;;;;;;20.15;4.10;;;;;;;15.84;58.17;100449.66;5045764;28;20456;-61
2023/10/17 14:12:11;;;;;;;17.25;3.92;;;;;;;15.90;57.78;100436.34;5054679;28;20048;-61
2023/10/17 14:14:39;;;;;;;28.83;5.03;;;;;;;15.84;58.12;100434.97;5053343;28;20047;-62